Time;durP1;ratioP1;P1;durP2;ratioP2;P2;SDS_P1;SDS_P2;PMS_P1;PMS_P2;Temp;Humidity;BMP_temperature;BMP_pressure;BME280_temperature;BME280_humidity;BME280_pressure;Samples;Min_cycle;Max_cycle;Signal;HPM_P1;HPM_P2
2023/04/14 00:11:35;;;;;;;12.10;7.70;;;;;;;13.67;75.25;99624.06;681771;1268;137739;-84
2023/04/14 00:26:39;;;;;;;10.10;7.40;;;;;;;13.48;76.27;99631.97;681579;1266;139001;-83
2023/04/14 00:41:42;;;;;;;10.90;7.60;;;;;;;13.24;75.52;99632.80;681639;1266;139024;-82
2023/04/14 00:56:46;;;;;;;10.60;7.00;;;;;;;13.05;75.48;99632.05;681361;1263;138860;-84
2023/04/14 01:12:12;;;;;;;11.00;7.40;;;;;;;12.78;75.51;99628.23;681667;1265;138449;-84
2023/04/14 01:27:45;;;;;;;15.10;8.80;;;;;;;12.62;76.38;99626.66;681669;1269;139318;-84
2023/04/14 01:42:58;;;;;;;43.70;14.30;;;;;;;12.47;76.52;99623.92;681720;1263;138710;-83
2023/04/14 01:58:04;;;;;;;52.40;17.20;;;;;;;12.37;76.91;99627.02;681478;1267;138958;-84
2023/04/14 02:13:09;;;;;;;11.70;8.20;;;;;;;12.31;78.44;99616.97;681569;1264;137470;-84
2023/04/14 02:28:18;;;;;;;16.50;9.90;;;;;;;12.29;78.98;99621.94;681557;1269;138599;-84
2023/04/14 02:43:29;;;;;;;15.70;10.10;;;;;;;12.29;81.50;99629.99;681747;1270;138729;-84
2023/04/14 02:58:33;;;;;;;14.30;9.80;;;;;;;12.22;83.32;99640.20;681619;1266;139351;-83
2023/04/14 03:13:40;;;;;;;17.40;12.10;;;;;;;12.20;83.27;99656.50;681558;1268;139175;-83
2023/04/14 03:28:46;;;;;;;23.50;14.20;;;;;;;12.00;84.91;99667.31;681532;1268;138472;-83
2023/04/14 03:43:53;;;;;;;25.80;16.60;;;;;;;12.01;84.60;99681.32;681601;1269;139018;-83
2023/04/14 03:59:00;;;;;;;30.00;18.50;;;;;;;12.02;82.82;99686.54;681519;1267;138855;-82
2023/04/14 04:14:05;;;;;;;30.50;17.30;;;;;;;12.00;81.73;99690.08;681430;1268;139669;-83
2023/04/14 04:29:11;;;;;;;31.20;18.80;;;;;;;12.05;82.10;99702.37;680839;1266;139181;-83
2023/04/14 04:44:14;;;;;;;26.30;16.40;;;;;;;12.10;84.99;99709.28;680804;1270;138809;-81
2023/04/14 04:59:17;;;;;;;23.40;14.50;;;;;;;11.99;88.93;99712.00;680825;1271;138888;-84
2023/04/14 05:14:20;;;;;;;22.90;14.80;;;;;;;12.12;90.45;99712.15;680854;1269;139080;-83
2023/04/14 05:29:24;;;;;;;23.20;13.90;;;;;;;12.22;91.45;99722.94;680978;1272;138844;-84
2023/04/14 05:44:27;;;;;;;22.20;14.40;;;;;;;12.34;92.62;99733.91;680806;1269;139283;-83
2023/04/14 05:59:30;;;;;;;24.20;13.90;;;;;;;12.61;92.98;99735.36;680655;1269;138632;-83
2023/04/14 06:14:34;;;;;;;29.60;18.60;;;;;;;12.95;92.90;99743.32;680601;1269;162365;-85
2023/04/14 06:29:37;;;;;;;20.50;14.50;;;;;;;13.30;92.58;99752.64;680787;1269;139198;-85
2023/04/14 06:44:40;;;;;;;24.20;15.20;;;;;;;13.42;92.41;99746.30;680426;1272;138871;-82
2023/04/14 06:59:45;;;;;;;20.80;13.90;;;;;;;13.64;91.93;99746.35;680990;1270;138886;-83
2023/04/14 07:14:51;;;;;;;26.60;15.40;;;;;;;13.79;90.77;99741.53;680650;1270;138994;-83
2023/04/14 07:29:54;;;;;;;19.80;14.00;;;;;;;14.49;89.55;99745.20;680905;1273;139044;-82
2023/04/14 07:44:57;;;;;;;19.80;13.00;;;;;;;15.00;88.11;99756.69;680778;1267;139736;-83
2023/04/14 08:00:01;;;;;;;21.40;13.90;;;;;;;15.16;86.47;99752.20;680586;1270;139269;-83
2023/04/14 08:15:14;;;;;;;26.40;15.00;;;;;;;15.17;85.07;99754.91;680861;1266;138703;-82
2023/04/14 08:30:17;;;;;;;29.10;17.90;;;;;;;16.39;83.45;99753.13;680959;1270;138783;-84
2023/04/14 08:45:20;;;;;;;17.50;12.40;;;;;;;18.56;77.51;99750.58;680694;1267;139469;-84
2023/04/14 09:00:24;;;;;;;18.40;12.40;;;;;;;18.77;72.61;99751.84;680761;1266;137829;-84
2023/04/14 09:15:28;;;;;;;25.10;13.80;;;;;;;18.32;70.93;99754.13;680555;1269;140349;-84
2023/04/14 09:30:31;;;;;;;17.00;9.90;;;;;;;17.20;71.45;99762.16;681013;1266;138825;-83
2023/04/14 09:45:44;;;;;;;16.60;10.60;;;;;;;16.64;72.09;99761.09;680942;1265;139462;-82
2023/04/14 10:00:51;;;;;;;16.10;10.60;;;;;;;16.30;74.59;99765.89;680626;1269;139206;-84
2023/04/14 10:15:54;;;;;;;14.30;9.60;;;;;;;16.59;74.36;99757.46;680722;1266;139798;-84
2023/04/14 10:31:00;;;;;;;14.90;9.90;;;;;;;16.95;73.36;99748.14;680912;1266;138952;-83
2023/04/14 10:46:05;;;;;;;12.60;7.70;;;;;;;17.58;72.39;99746.59;680823;1268;138757;-83
2023/04/14 11:01:30;;;;;;;12.30;7.90;;;;;;;18.27;70.19;99732.91;680806;1269;138964;-83
2023/04/14 11:16:38;;;;;;;9.90;6.10;;;;;;;18.47;68.47;99727.75;681035;1269;139251;-83
2023/04/14 11:32:04;;;;;;;13.60;7.90;;;;;;;19.41;66.43;99708.89;680812;1265;138498;-85
2023/04/14 11:47:07;;;;;;;26.20;8.50;;;;;;;20.11;64.19;99693.99;680904;1266;138708;-81
2023/04/14 12:02:16;;;;;;;7.90;5.50;;;;;;;20.40;63.06;99682.41;680548;1269;139165;-84
2023/04/14 12:17:20;;;;;;;5.40;4.20;;;;;;;21.63;59.29;99668.70;680345;1272;137893;-83
2023/04/14 12:32:24;;;;;;;6.30;4.90;;;;;;;22.76;55.89;99654.53;680125;1272;137885;-83
2023/04/14 12:47:28;;;;;;;8.50;5.20;;;;;;;23.01;54.57;99635.63;680597;1272;137688;-84
2023/04/14 13:02:32;;;;;;;6.70;4.80;;;;;;;23.39;53.61;99617.39;680800;1267;137973;-83
2023/04/14 13:17:35;;;;;;;7.80;5.80;;;;;;;23.89;51.31;99604.95;680811;1266;136916;-84
2023/04/14 13:32:39;;;;;;;4.80;3.50;;;;;;;23.81;50.01;99597.41;680834;1266;140314;-84
2023/04/14 13:47:47;;;;;;;4.10;3.50;;;;;;;23.09;49.78;99591.88;680737;1270;138131;-84
2023/04/14 14:02:50;;;;;;;6.00;4.50;;;;;;;23.16;51.84;99588.84;680583;1279;137944;-84
2023/04/14 14:17:54;;;;;;;6.30;4.60;;;;;;;26.54;49.23;99591.20;680940;1266;138464;-84
2023/04/14 14:32:57;;;;;;;9.30;4.70;;;;;;;32.95;40.43;99584.19;680812;1266;137701;-84
2023/04/14 14:48:01;;;;;;;9.20;5.30;;;;;;;32.31;40.45;99595.38;680922;1266;137995;-84
2023/04/14 15:03:05;;;;;;;5.60;4.40;;;;;;;30.92;42.00;99592.78;680758;1265;138113;-84
2023/04/14 15:18:09;;;;;;;14.60;8.40;;;;;;;25.73;47.41;99587.50;680672;1265;137945;-84
2023/04/14 15:33:12;;;;;;;71.10;57.70;;;;;;;21.97;53.94;99596.81;680794;1266;138039;-84
2023/04/14 15:48:15;;;;;;;45.20;23.30;;;;;;;21.19;56.03;99590.87;680899;1266;138142;-84
2023/04/14 16:03:18;;;;;;;87.30;38.50;;;;;;;20.34;58.27;99597.17;680715;1266;138785;-84
2023/04/14 16:18:22;;;;;;;49.50;24.80;;;;;;;19.98;59.14;99604.78;680512;1266;138532;-84
2023/04/14 16:33:26;;;;;;;33.10;18.90;;;;;;;19.97;60.13;99601.15;680224;1267;138400;-84
2023/04/14 16:48:30;;;;;;;74.90;34.10;;;;;;;19.91;60.00;99600.92;680501;1270;138408;-84
2023/04/14 17:03:33;;;;;;;34.60;17.90;;;;;;;19.25;60.83;99608.12;680113;1271;138270;-82
2023/04/14 17:18:37;;;;;;;27.50;15.20;;;;;;;18.41;61.52;99626.30;680580;1271;138059;-84
2023/04/14 17:33:42;;;;;;;20.20;14.90;;;;;;;17.69;63.46;99655.45;680373;1269;138791;-85
2023/04/14 17:48:46;;;;;;;13.00;8.60;;;;;;;17.21;64.86;99662.86;680281;1270;138338;-83
2023/04/14 18:03:49;;;;;;;19.50;13.70;;;;;;;16.88;65.48;99671.08;680254;1271;147647;-84
2023/04/14 18:18:54;;;;;;;25.70;17.30;;;;;;;16.54;65.31;99681.20;680536;1271;138902;-85
2023/04/14 18:34:04;;;;;;;14.60;10.80;;;;;;;16.37;66.30;99696.05;680365;1272;138958;-84
2023/04/14 18:49:07;;;;;;;16.80;10.90;;;;;;;16.02;68.36;99706.77;680305;1271;139317;-84
2023/04/14 19:04:13;;;;;;;17.00;11.30;;;;;;;15.74;69.91;99715.06;680122;1271;139418;-84
2023/04/14 19:19:19;;;;;;;14.70;10.50;;;;;;;15.48;71.07;99712.17;680216;1271;139098;-84
2023/04/14 19:34:22;;;;;;;15.00;10.10;;;;;;;15.49;70.51;99714.59;680198;1272;138707;-84
2023/04/14 19:49:26;;;;;;;18.80;11.30;;;;;;;15.78;69.76;99719.48;680554;1270;138952;-84
2023/04/14 20:04:30;;;;;;;19.80;11.50;;;;;;;15.74;69.55;99722.75;679993;1271;138860;-84
2023/04/14 20:19:34;;;;;;;15.10;10.90;;;;;;;15.93;68.28;99727.01;680399;1271;139117;-84
2023/04/14 20:34:38;;;;;;;14.10;9.10;;;;;;;15.73;68.21;99717.40;680506;1272;139235;-84
2023/04/14 20:49:41;;;;;;;14.80;10.70;;;;;;;15.70;67.61;99716.70;680345;1268;138932;-84
2023/04/14 21:04:45;;;;;;;16.50;9.70;;;;;;;15.65;67.19;99721.48;680352;1272;139076;-84
2023/04/14 21:19:48;;;;;;;29.90;12.40;;;;;;;15.57;67.60;99734.45;680149;1271;138758;-85
2023/04/14 21:34:51;;;;;;;15.70;9.80;;;;;;;15.58;67.58;99733.30;680087;1272;138936;-85
2023/04/14 21:49:55;;;;;;;14.80;10.00;;;;;;;15.42;67.79;99729.04;679839;1269;138933;-84
2023/04/14 22:04:58;;;;;;;17.90;10.10;;;;;;;15.36;68.31;99726.66;680182;1271;139123;-84
2023/04/14 22:20:01;;;;;;;16.90;10.10;;;;;;;15.39;68.25;99720.14;680114;1272;139351;-85
2023/04/14 22:35:04;;;;;;;14.20;10.00;;;;;;;15.30;68.44;99716.13;680147;1272;138827;-82
2023/04/14 22:50:08;;;;;;;16.20;10.90;;;;;;;15.17;69.05;99717.80;679949;1270;139278;-83
2023/04/14 23:05:12;;;;;;;17.10;9.70;;;;;;;14.99;69.91;99714.22;680369;1269;138855;-83
2023/04/14 23:20:15;;;;;;;14.40;8.90;;;;;;;14.94;70.03;99710.19;680335;1272;138794;-84
2023/04/14 23:35:18;;;;;;;18.70;12.00;;;;;;;14.97;69.79;99708.98;680236;1272;139199;-84
2023/04/14 23:50:21;;;;;;;13.70;10.30;;;;;;;14.86;70.84;99708.15;680176;1273;138891;-85
